CBBC 040600Z AUTO 09003KT 9SM OVC028 06/05 A2963 RMK SLP036
From batch tds/metars/production/2023/2/4/h06_m24_metars.cache.csv.gz
Observed at (about 3 hours ago)
Identifier CBBC
CBBC 040532Z AUTO 12004KT 9SM OVC030 06/05 A2962 RMK SLP032
From batch tds/metars/production/2023/2/4/h05_m59_metars.cache.csv.gz
Observed at (about 3 hours ago)
Identifier CBBC
CBBC 040400Z AUTO 15003KT 9SM OVC038 06/05 A2958 RMK SLP019
From batch tds/metars/production/2023/2/4/h04_m25_metars.cache.csv.gz
Observed at (about 5 hours ago)
Identifier CBBC
CBBC 032200Z AUTO VRB02KT 9SM OVC066 08/06 A2951 RMK SLP995
From batch tds/metars/production/2023/2/3/h22_m28_metars.cache.csv.gz
Observed at (about 11 hours ago)
Identifier CBBC
CBBC 032000Z AUTO 19004KT 9SM OVC066 07/05 A2954 RMK SLP007
From batch tds/metars/production/2023/2/3/h20_m20_metars.cache.csv.gz
Observed at (about 13 hours ago)
Identifier CBBC
CBBC 031449Z AUTO 00000KT 6SM BR OVC066 05/05 A2959 RMK SLP022
From batch tds/metars/production/2023/2/3/h14_m53_metars.cache.csv.gz
Observed at (about 18 hours ago)
Identifier CBBC
talk